Time;durP1;ratioP1;P1;durP2;ratioP2;P2;SDS_P1;SDS_P2;PMS_P1;PMS_P2;Temp;Humidity;BMP_temperature;BMP_pressure;BME280_temperature;BME280_humidity;BME280_pressure;Samples;Min_cycle;Max_cycle;Signal;HPM_P1;HPM_P2
2022/06/28 00:00:06;;;;;;;11.15;6.43;;;24.30;99.90;;;;;;5007147;28;20226;-77
2022/06/28 00:02:55;;;;;;;6.97;6.28;;;24.20;99.90;;;;;;5000890;28;20692;-77
2022/06/28 00:05:43;;;;;;;8.35;6.28;;;24.20;99.90;;;;;;5020848;28;20244;-77
2022/06/28 00:08:33;;;;;;;7.57;6.20;;;24.20;99.90;;;;;;5010654;28;20228;-78
2022/06/28 00:11:22;;;;;;;8.48;6.60;;;24.20;99.90;;;;;;5013479;28;20226;-78
2022/06/28 00:17:26;;;;;;;9.15;6.85;;;24.20;99.90;;;;;;4970151;28;20328;-77
2022/06/28 00:20:15;;;;;;;10.20;6.10;;;24.20;99.90;;;;;;5021996;28;20379;-77
2022/06/28 00:23:07;;;;;;;10.25;6.63;;;24.10;99.90;;;;;;5023725;28;20591;-77
2022/06/28 00:25:57;;;;;;;11.82;6.57;;;24.10;99.90;;;;;;5025002;28;20228;-76
2022/06/28 00:28:46;;;;;;;6.85;6.15;;;24.00;99.90;;;;;;5013708;28;20406;-77
2022/06/28 00:31:35;;;;;;;6.90;6.20;;;24.00;99.90;;;;;;5012987;28;20218;-79
2022/06/28 00:34:24;;;;;;;7.20;6.07;;;24.00;99.90;;;;;;5014720;28;20236;-75
2022/06/28 00:37:15;;;;;;;6.90;6.22;;;23.90;99.90;;;;;;5022390;28;20588;-75
2022/06/28 00:40:05;;;;;;;8.25;6.20;;;23.90;99.90;;;;;;5019473;28;20221;-78
2022/06/28 00:42:55;;;;;;;8.93;5.63;;;23.80;99.90;;;;;;5008828;28;20243;-77
2022/06/28 00:45:46;;;;;;;6.75;6.00;;;23.80;99.90;;;;;;5009607;28;20240;-77
2022/06/28 00:48:35;;;;;;;6.90;6.22;;;23.70;99.90;;;;;;5005306;28;20261;-77
2022/06/28 00:51:25;;;;;;;9.40;5.90;;;23.70;99.90;;;;;;5002766;28;20724;-76
2022/06/28 00:54:14;;;;;;;7.07;6.13;;;23.70;99.90;;;;;;5005492;28;20735;-77
2022/06/28 00:57:03;;;;;;;6.90;5.55;;;23.70;99.90;;;;;;5013418;28;20232;-78
2022/06/28 00:59:53;;;;;;;6.28;5.60;;;23.70;99.90;;;;;;5001687;28;20890;-78
2022/06/28 01:02:47;;;;;;;9.10;6.05;;;23.70;99.90;;;;;;5006318;28;20234;-78
2022/06/28 01:05:37;;;;;;;6.90;6.20;;;23.60;99.90;;;;;;4996343;28;20221;-77
2022/06/28 01:08:26;;;;;;;6.70;6.10;;;23.50;99.90;;;;;;5004034;28;20225;-78
2022/06/28 01:11:21;;;;;;;8.00;6.18;;;23.60;99.90;;;;;;4997476;28;20234;-77
2022/06/28 01:14:12;;;;;;;10.10;5.93;;;23.60;99.90;;;;;;5008778;28;20678;-76
2022/06/28 01:17:20;;;;;;;7.90;6.10;;;23.50;99.90;;;;;;5008253;28;20217;-76
2022/06/28 01:20:13;;;;;;;7.15;5.57;;;23.50;99.90;;;;;;5004612;28;20249;-78
2022/06/28 01:23:26;;;;;;;7.75;6.43;;;23.50;99.90;;;;;;4994713;28;20227;-78
2022/06/28 01:26:31;;;;;;;9.70;6.88;;;23.40;99.90;;;;;;5000678;28;20223;-78
2022/06/28 01:29:20;;;;;;;11.90;6.10;;;23.40;99.90;;;;;;5008691;28;20953;-79
2022/06/28 01:32:19;;;;;;;13.35;6.78;;;23.40;99.90;;;;;;4990834;28;20226;-77
2022/06/28 01:35:09;;;;;;;7.03;6.35;;;23.30;99.90;;;;;;4998837;28;20590;-77
2022/06/28 01:38:00;;;;;;;7.95;6.07;;;23.30;99.90;;;;;;5002411;28;20222;-79
2022/06/28 01:40:50;;;;;;;11.15;6.40;;;23.30;99.90;;;;;;5016678;28;20932;-76
2022/06/28 01:43:40;;;;;;;10.85;6.72;;;23.20;99.90;;;;;;5003937;28;20566;-77
2022/06/28 01:46:29;;;;;;;7.80;6.63;;;23.20;99.90;;;;;;5007810;28;20238;-75
2022/06/28 01:49:23;;;;;;;8.95;6.70;;;23.20;99.90;;;;;;5008696;28;20222;-75
2022/06/28 01:52:12;;;;;;;13.32;6.78;;;23.20;99.90;;;;;;5008210;28;20838;-77
2022/06/28 01:55:00;;;;;;;6.75;6.03;;;23.30;99.90;;;;;;5008550;28;20228;-77
2022/06/28 01:57:53;;;;;;;9.02;6.35;;;23.20;99.90;;;;;;5020755;28;20230;-76
2022/06/28 02:00:42;;;;;;;9.85;6.32;;;23.10;99.90;;;;;;5005496;28;20245;-77
2022/06/28 02:03:31;;;;;;;9.52;6.47;;;23.10;99.90;;;;;;5003596;28;20320;-75
2022/06/28 02:06:28;;;;;;;7.13;6.25;;;23.00;99.90;;;;;;5006720;28;20213;-75
2022/06/28 02:09:23;;;;;;;7.00;6.30;;;23.10;99.90;;;;;;5011223;28;20228;-75
2022/06/28 02:12:11;;;;;;;8.75;6.75;;;23.10;99.90;;;;;;5009403;28;20272;-75
2022/06/28 02:15:07;;;;;;;15.55;6.82;;;23.10;99.90;;;;;;5006658;28;20229;-75
2022/06/28 02:17:58;;;;;;;11.25;6.60;;;23.00;99.90;;;;;;5002202;28;20232;-76
2022/06/28 02:20:47;;;;;;;7.50;6.53;;;23.10;99.90;;;;;;5004888;28;20229;-77
2022/06/28 02:23:36;;;;;;;9.30;6.50;;;23.10;99.90;;;;;;5007984;28;20213;-77
2022/06/28 02:26:24;;;;;;;6.88;6.18;;;23.10;99.90;;;;;;5009750;28;20233;-77
2022/06/28 02:29:13;;;;;;;8.98;6.50;;;23.10;99.90;;;;;;5007899;28;20233;-77
2022/06/28 02:32:04;;;;;;;10.35;6.88;;;23.00;99.90;;;;;;5009317;28;20734;-78
2022/06/28 02:41:05;;;;;;;9.65;6.72;;;22.80;99.90;;;;;;5011845;28;20229;-78
2022/06/28 02:43:54;;;;;;;12.35;7.35;;;22.80;99.90;;;;;;5016841;28;20226;-78
2022/06/28 02:46:42;;;;;;;7.63;6.50;;;22.80;99.90;;;;;;5015510;28;20222;-78
2022/06/28 02:49:32;;;;;;;7.60;6.43;;;22.70;99.90;;;;;;5004195;28;20276;-78
2022/06/28 02:52:21;;;;;;;9.27;6.93;;;22.70;99.90;;;;;;5008368;28;20214;-78
2022/06/28 02:55:10;;;;;;;7.65;6.22;;;22.80;99.90;;;;;;5007009;28;20229;-79
2022/06/28 02:57:59;;;;;;;8.38;6.38;;;22.80;99.90;;;;;;5009523;28;20220;-79
2022/06/28 03:00:47;;;;;;;10.85;6.53;;;22.90;99.90;;;;;;5024678;28;20234;-79
2022/06/28 03:03:36;;;;;;;9.77;6.93;;;22.80;99.90;;;;;;5019188;28;20225;-79
2022/06/28 03:06:26;;;;;;;11.43;6.25;;;22.70;99.90;;;;;;5005602;28;20678;-78
2022/06/28 03:09:15;;;;;;;8.77;7.18;;;22.80;99.90;;;;;;5014972;28;20360;-78
2022/06/28 03:12:06;;;;;;;9.93;7.15;;;22.90;99.90;;;;;;5000652;28;20230;-76
2022/06/28 03:14:54;;;;;;;6.93;6.22;;;22.90;99.90;;;;;;5017797;28;20716;-78
2022/06/28 03:17:43;;;;;;;8.20;7.20;;;22.90;99.90;;;;;;5028706;28;20620;-78
2022/06/28 03:20:35;;;;;;;7.88;7.05;;;22.90;99.90;;;;;;5006387;28;20248;-78
2022/06/28 03:23:25;;;;;;;11.35;7.20;;;23.00;99.90;;;;;;5018192;28;20241;-78
2022/06/28 03:26:14;;;;;;;8.57;6.68;;;23.00;99.90;;;;;;5009564;28;20376;-78
2022/06/28 03:29:03;;;;;;;8.10;7.30;;;23.00;99.90;;;;;;5021858;28;20785;-78
2022/06/28 03:31:51;;;;;;;9.20;7.45;;;23.10;99.90;;;;;;5016538;28;20245;-78
2022/06/28 03:34:40;;;;;;;9.40;7.13;;;23.10;99.90;;;;;;5009033;28;20221;-79
2022/06/28 03:37:31;;;;;;;7.50;6.80;;;23.10;99.90;;;;;;5016940;28;20229;-79
2022/06/28 03:40:25;;;;;;;10.15;7.30;;;23.10;99.90;;;;;;5026568;28;20692;-79
2022/06/28 03:43:13;;;;;;;9.45;7.93;;;23.10;99.90;;;;;;5009541;28;20703;-76
2022/06/28 03:46:02;;;;;;;10.68;8.15;;;23.20;99.90;;;;;;5021502;28;20578;-76
2022/06/28 03:49:11;;;;;;;8.45;7.60;;;23.00;99.90;;;;;;4997047;28;20233;-79
2022/06/28 03:52:11;;;;;;;13.63;7.70;;;23.20;99.90;;;;;;5003083;28;20217;-79
2022/06/28 03:55:31;;;;;;;7.75;7.00;;;23.10;99.90;;;;;;5018608;28;20335;-78
2022/06/28 03:58:20;;;;;;;11.30;7.30;;;23.20;99.90;;;;;;5020378;28;20280;-78
2022/06/28 04:01:08;;;;;;;7.88;7.07;;;23.20;99.90;;;;;;5021907;28;20238;-78
2022/06/28 04:03:57;;;;;;;8.23;7.13;;;23.40;99.90;;;;;;5019560;28;20308;-78
2022/06/28 04:06:46;;;;;;;9.98;7.97;;;23.60;99.90;;;;;;5018973;28;20253;-80
2022/06/28 04:09:35;;;;;;;8.15;7.30;;;23.50;99.90;;;;;;5016260;28;20213;-80
2022/06/28 04:12:25;;;;;;;13.35;7.53;;;23.50;99.90;;;;;;5015160;28;20221;-76
2022/06/28 04:15:20;;;;;;;10.00;7.05;;;23.50;99.90;;;;;;5007806;28;20272;-79
2022/06/28 04:18:20;;;;;;;7.35;6.65;;;23.70;99.90;;;;;;5007665;28;20221;-79
2022/06/28 04:21:27;;;;;;;10.13;7.05;;;23.80;99.90;;;;;;5027781;28;20213;-80
2022/06/28 04:24:29;;;;;;;9.93;7.03;;;23.70;99.90;;;;;;5006386;28;20217;-76
2022/06/28 04:27:35;;;;;;;7.55;6.68;;;23.80;99.90;;;;;;5006243;28;20229;-76
2022/06/28 04:30:31;;;;;;;7.63;6.68;;;23.80;99.90;;;;;;5021014;28;21341;-73
2022/06/28 04:33:22;;;;;;;8.80;6.65;;;23.80;99.90;;;;;;5024922;28;20302;-75
2022/06/28 04:36:11;;;;;;;8.63;6.82;;;23.90;99.90;;;;;;5015673;28;20225;-75
2022/06/28 04:39:07;;;;;;;8.73;6.53;;;23.90;99.90;;;;;;5001946;28;20218;-74
2022/06/28 04:42:02;;;;;;;8.30;7.20;;;24.00;99.90;;;;;;5014858;28;20226;-76
2022/06/28 04:44:55;;;;;;;9.90;6.88;;;24.10;99.90;;;;;;5011192;28;20229;-78
2022/06/28 04:47:52;;;;;;;7.80;6.78;;;24.10;99.90;;;;;;5011212;28;20540;-80
2022/06/28 04:50:40;;;;;;;8.48;6.97;;;24.30;99.90;;;;;;4999281;28;20222;-76
2022/06/28 04:53:34;;;;;;;8.20;6.97;;;24.40;99.90;;;;;;5019291;28;20226;-78
2022/06/28 04:56:23;;;;;;;12.57;6.60;;;24.50;99.90;;;;;;5024645;28;20380;-78
2022/06/28 04:59:12;;;;;;;8.10;7.28;;;24.60;99.90;;;;;;5023999;28;20312;-74
2022/06/28 05:02:02;;;;;;;9.77;6.63;;;24.70;99.90;;;;;;5007529;28;20222;-79
2022/06/28 05:04:51;;;;;;;10.52;6.97;;;24.70;99.90;;;;;;5020972;28;21166;-78
2022/06/28 05:07:51;;;;;;;9.73;6.38;;;24.90;99.90;;;;;;5018623;28;20529;-78
2022/06/28 05:10:45;;;;;;;7.65;6.82;;;24.80;99.90;;;;;;5016383;28;20607;-77
2022/06/28 05:13:52;;;;;;;10.38;6.75;;;24.90;99.90;;;;;;5008220;28;20591;-79
2022/06/28 05:16:42;;;;;;;9.23;7.30;;;25.10;99.90;;;;;;5018448;28;20225;-80
2022/06/28 05:19:33;;;;;;;8.05;6.50;;;25.00;99.90;;;;;;5007429;28;20588;-78
2022/06/28 05:22:23;;;;;;;9.73;7.13;;;25.00;99.90;;;;;;5004935;28;20225;-78
2022/06/28 05:25:31;;;;;;;9.88;7.40;;;25.10;99.90;;;;;;5004544;28;20221;-78
2022/06/28 05:28:19;;;;;;;9.77;7.63;;;25.20;99.90;;;;;;5017528;28;20351;-79
2022/06/28 05:31:08;;;;;;;8.77;7.22;;;25.20;99.90;;;;;;5008716;28;20217;-79
2022/06/28 05:33:56;;;;;;;12.68;6.63;;;25.20;99.90;;;;;;5023315;28;20296;-79
2022/06/28 05:36:46;;;;;;;7.35;6.65;;;25.30;99.90;;;;;;5005393;28;22194;-79
2022/06/28 05:39:35;;;;;;;9.27;6.65;;;25.40;99.90;;;;;;5008243;28;20217;-79
2022/06/28 05:42:24;;;;;;;8.43;6.35;;;25.60;99.90;;;;;;5023719;28;20299;-78
2022/06/28 05:45:13;;;;;;;10.73;6.70;;;25.70;99.90;;;;;;5008319;28;20225;-79
2022/06/28 05:48:02;;;;;;;11.68;7.70;;;25.80;99.90;;;;;;5007820;28;20226;-78
2022/06/28 05:50:52;;;;;;;13.10;6.78;;;25.80;99.90;;;;;;5007842;28;20238;-77
2022/06/28 05:53:42;;;;;;;9.23;6.38;;;25.80;99.90;;;;;;5017582;28;20309;-79
2022/06/28 05:56:32;;;;;;;8.88;6.30;;;25.90;99.90;;;;;;5005805;28;20225;-78
2022/06/28 05:59:20;;;;;;;9.25;6.25;;;26.10;99.90;;;;;;5007993;28;20589;-78
2022/06/28 06:02:09;;;;;;;12.32;6.95;;;26.20;99.90;;;;;;5022065;28;20233;-75
2022/06/28 06:04:59;;;;;;;7.38;6.40;;;26.10;99.90;;;;;;5005524;28;20228;-74
2022/06/28 06:07:48;;;;;;;10.77;6.22;;;26.30;99.90;;;;;;5006829;28;20225;-72
2022/06/28 06:10:38;;;;;;;11.02;6.65;;;26.40;99.90;;;;;;4996855;28;20221;-74
2022/06/28 06:13:26;;;;;;;8.57;6.35;;;26.60;99.90;;;;;;5008855;28;20226;-78
2022/06/28 06:16:15;;;;;;;9.85;6.72;;;26.60;99.90;;;;;;5005173;28;20229;-75
2022/06/28 06:19:07;;;;;;;8.88;7.32;;;26.70;99.90;;;;;;5021110;28;20293;-76
2022/06/28 06:21:56;;;;;;;9.05;6.35;;;26.80;99.90;;;;;;5021953;28;20229;-76
2022/06/28 06:24:45;;;;;;;7.38;6.57;;;26.90;99.90;;;;;;5022176;28;20356;-76
2022/06/28 06:27:41;;;;;;;10.63;6.70;;;27.80;99.90;;;;;;5016605;28;20226;-77
2022/06/28 06:30:30;;;;;;;8.98;6.55;;;29.10;99.90;;;;;;5009908;28;20327;-75
2022/06/28 06:33:32;;;;;;;6.93;6.22;;;29.50;99.90;;;;;;5008904;28;20329;-77
2022/06/28 06:36:30;;;;;;;7.68;6.40;;;28.90;99.90;;;;;;5004752;28;20221;-77
2022/06/28 06:39:22;;;;;;;8.80;6.05;;;28.70;99.90;;;;;;5003285;28;20229;-75
2022/06/28 06:42:11;;;;;;;9.20;6.63;;;28.40;99.90;;;;;;5004555;28;20228;-77
2022/06/28 06:45:08;;;;;;;8.60;6.72;;;28.20;99.90;;;;;;5016732;28;20331;-77
2022/06/28 06:47:57;;;;;;;9.10;6.63;;;28.10;99.90;;;;;;5020617;28;20300;-77
2022/06/28 06:50:45;;;;;;;11.27;6.53;;;28.20;99.90;;;;;;4995547;28;20680;-78
2022/06/28 06:53:34;;;;;;;7.82;6.35;;;28.50;99.90;;;;;;5007008;28;20221;-78
2022/06/28 06:56:23;;;;;;;12.38;7.32;;;28.70;99.90;;;;;;5014984;28;20220;-76
2022/06/28 06:59:13;;;;;;;8.55;6.50;;;28.90;99.90;;;;;;5009144;28;20213;-76
2022/06/28 07:02:04;;;;;;;7.55;6.68;;;28.80;99.90;;;;;;5010375;28;20231;-76
2022/06/28 07:05:06;;;;;;;9.00;6.40;;;28.80;99.90;;;;;;5021259;28;20224;-74
2022/06/28 07:07:55;;;;;;;9.68;6.60;;;29.00;99.90;;;;;;5006917;28;20228;-76
2022/06/28 07:10:51;;;;;;;14.27;7.15;;;29.10;98.50;;;;;;5008866;28;20228;-79
2022/06/28 07:13:39;;;;;;;8.95;6.65;;;30.00;97.40;;;;;;5021744;28;20260;-77
2022/06/28 07:16:29;;;;;;;8.23;6.88;;;30.80;94.70;;;;;;5031816;28;20217;-76
2022/06/28 07:19:19;;;;;;;7.15;6.25;;;30.80;94.60;;;;;;5008400;28;20220;-74
2022/06/28 07:22:11;;;;;;;7.60;5.93;;;30.50;94.30;;;;;;5029688;28;20356;-76
2022/06/28 07:25:03;;;;;;;13.40;6.40;;;30.40;92.80;;;;;;5002105;28;20352;-72
2022/06/28 07:27:52;;;;;;;6.80;6.10;;;30.30;92.70;;;;;;5007953;28;20715;-71
2022/06/28 07:30:40;;;;;;;10.68;5.80;;;30.50;93.30;;;;;;5004983;28;20708;-73
2022/06/28 07:33:30;;;;;;;9.30;5.90;;;30.60;91.40;;;;;;4995610;28;20592;-73
2022/06/28 07:36:20;;;;;;;19.52;6.15;;;30.40;90.70;;;;;;5009068;28;20831;-73
2022/06/28 07:39:10;;;;;;;5.63;4.88;;;30.80;90.60;;;;;;5016246;28;20230;-73
2022/06/28 07:42:18;;;;;;;7.03;5.60;;;31.20;87.80;;;;;;5010710;28;20615;-75
2022/06/28 07:45:27;;;;;;;7.63;5.22;;;31.50;85.00;;;;;;4988210;28;20216;-72
2022/06/28 07:48:29;;;;;;;5.85;5.25;;;32.00;83.60;;;;;;5008556;28;20709;-73
2022/06/28 07:54:26;;;;;;;10.02;4.97;;;32.80;82.50;;;;;;5017074;28;20224;-73
2022/06/28 07:57:23;;;;;;;7.05;4.70;;;32.70;77.30;;;;;;5006447;28;20217;-73
2022/06/28 08:00:12;;;;;;;5.82;4.45;;;33.30;75.70;;;;;;5019210;28;20217;-74
2022/06/28 08:03:06;;;;;;;6.00;4.20;;;33.60;74.00;;;;;;5007737;28;20247;-74
2022/06/28 08:05:55;;;;;;;5.28;4.30;;;33.70;73.90;;;;;;5014634;28;20235;-74
2022/06/28 08:08:48;;;;;;;8.07;5.10;;;33.90;70.90;;;;;;5005861;28;20691;-74
2022/06/28 08:11:39;;;;;;;4.32;4.00;;;33.90;71.50;;;;;;5016928;28;20611;-75
2022/06/28 08:14:29;;;;;;;8.50;4.30;;;34.30;70.10;;;;;;5010998;28;20213;-73
2022/06/28 08:17:17;;;;;;;4.72;4.32;;;34.60;68.00;;;;;;5009565;28;20229;-73
2022/06/28 08:20:08;;;;;;;7.95;4.15;;;34.70;66.90;;;;;;5009695;28;20244;-73
2022/06/28 08:22:56;;;;;;;7.93;4.55;;;35.00;65.60;;;;;;5020302;28;20291;-74
2022/06/28 08:25:46;;;;;;;5.03;3.67;;;35.30;64.80;;;;;;5019056;28;20232;-75
2022/06/28 08:28:37;;;;;;;6.90;4.35;;;35.00;64.30;;;;;;5010478;28;20225;-75
2022/06/28 08:31:25;;;;;;;22.58;5.55;;;35.00;64.70;;;;;;5027363;28;20246;-73
2022/06/28 08:34:14;;;;;;;4.00;3.70;;;35.70;62.40;;;;;;5012643;28;20283;-74
2022/06/28 08:37:03;;;;;;;5.72;3.83;;;36.00;62.40;;;;;;5025904;28;20231;-73
2022/06/28 08:39:52;;;;;;;4.68;3.60;;;36.50;61.60;;;;;;5023749;28;20213;-74
2022/06/28 08:42:47;;;;;;;5.38;3.92;;;36.30;59.50;;;;;;5018077;28;20213;-74
2022/06/28 08:45:38;;;;;;;4.53;3.50;;;36.90;60.50;;;;;;5011027;28;20244;-74
2022/06/28 08:48:32;;;;;;;4.60;3.30;;;36.90;57.80;;;;;;5006077;28;20698;-73
2022/06/28 08:51:21;;;;;;;3.58;3.28;;;37.10;57.40;;;;;;5006483;28;20828;-76
2022/06/28 08:54:11;;;;;;;10.57;3.65;;;37.10;57.40;;;;;;5007862;28;20228;-72
2022/06/28 08:57:00;;;;;;;4.20;3.30;;;37.50;56.40;;;;;;4993454;28;20221;-74
2022/06/28 08:59:49;;;;;;;5.88;3.40;;;37.60;54.80;;;;;;5010405;28;20237;-74
2022/06/28 09:02:39;;;;;;;9.90;3.22;;;37.60;55.50;;;;;;5004123;28;20681;-74
2022/06/28 09:05:29;;;;;;;5.13;3.17;;;37.90;55.00;;;;;;4992009;28;20587;-74
2022/06/28 09:08:18;;;;;;;5.10;3.80;;;38.70;53.80;;;;;;4990933;28;20252;-75
2022/06/28 09:11:06;;;;;;;3.83;3.35;;;39.10;53.10;;;;;;5006728;28;20249;-74
2022/06/28 09:13:55;;;;;;;7.70;3.80;;;39.50;52.40;;;;;;5007843;28;20230;-74
2022/06/28 09:16:43;;;;;;;8.35;3.50;;;39.10;52.00;;;;;;5007264;28;20220;-74
2022/06/28 09:19:38;;;;;;;4.90;3.70;;;39.90;52.30;;;;;;5006461;28;20227;-74
2022/06/28 09:22:34;;;;;;;6.45;3.80;;;40.60;50.70;;;;;;5002430;28;20888;-72
2022/06/28 09:25:26;;;;;;;7.82;3.70;;;41.40;50.50;;;;;;5012259;28;20235;-74
2022/06/28 09:28:23;;;;;;;4.70;3.83;;;41.70;49.80;;;;;;5008703;28;20587;-74
2022/06/28 09:31:20;;;;;;;6.10;4.15;;;42.40;49.00;;;;;;5006687;28;20840;-74
2022/06/28 09:34:11;;;;;;;4.63;3.78;;;42.00;46.90;;;;;;5005412;28;20240;-74
2022/06/28 09:37:01;;;;;;;5.38;4.18;;;42.10;48.40;;;;;;5003887;28;20227;-74
2022/06/28 09:39:50;;;;;;;5.03;4.00;;;42.10;47.40;;;;;;5007027;28;20717;-75
2022/06/28 09:42:38;;;;;;;4.38;3.47;;;41.60;49.30;;;;;;5007297;28;20831;-74
2022/06/28 09:45:28;;;;;;;5.90;3.63;;;41.90;47.60;;;;;;5006359;28;20222;-74
2022/06/28 09:48:19;;;;;;;3.75;3.40;;;42.60;49.20;;;;;;5011946;28;20225;-74
2022/06/28 09:51:11;;;;;;;6.38;3.70;;;42.90;47.00;;;;;;5012422;28;20222;-73
2022/06/28 09:54:03;;;;;;;7.40;4.05;;;43.10;46.30;;;;;;5028614;28;20679;-71
2022/06/28 09:57:12;;;;;;;6.03;4.00;;;43.90;46.80;;;;;;5024504;28;20567;-73
2022/06/28 10:00:01;;;;;;;5.57;3.78;;;44.40;46.10;;;;;;5022772;28;20228;-74
2022/06/28 10:02:59;;;;;;;3.97;3.65;;;44.70;44.40;;;;;;5024370;28;20220;-75
2022/06/28 10:05:48;;;;;;;4.60;3.50;;;45.20;43.50;;;;;;5022696;28;20229;-74
2022/06/28 10:08:38;;;;;;;6.22;3.58;;;45.00;43.90;;;;;;5019825;28;20224;-75
2022/06/28 10:15:01;;;;;;;7.15;3.40;;;43.80;44.90;;;;;;5024409;28;20653;-74
2022/06/28 10:17:50;;;;;;;4.80;3.75;;;46.40;42.60;;;;;;5019390;28;20217;-74
2022/06/28 10:20:43;;;;;;;4.07;3.67;;;47.30;41.20;;;;;;5017936;28;20221;-74
2022/06/28 10:23:37;;;;;;;5.45;3.53;;;46.90;41.10;;;;;;5021472;28;20285;-74
2022/06/28 10:26:26;;;;;;;6.50;3.10;;;47.00;41.20;;;;;;5025430;28;20243;-74
2022/06/28 10:29:16;;;;;;;3.78;3.10;;;47.20;40.90;;;;;;5021131;28;20229;-74
2022/06/28 10:32:39;;;;;;;6.95;3.10;;;47.10;40.50;;;;;;5005700;28;20236;-74
2022/06/28 10:35:55;;;;;;;4.57;3.55;;;47.30;40.10;;;;;;5017701;28;20584;-74
2022/06/28 10:39:11;;;;;;;3.88;3.40;;;46.10;40.60;;;;;;5002556;28;20220;-76
2022/06/28 10:42:13;;;;;;;3.47;3.17;;;46.60;40.40;;;;;;5020474;28;20230;-73
2022/06/28 10:45:03;;;;;;;4.45;3.33;;;46.80;39.70;;;;;;5009948;28;20231;-74
2022/06/28 10:48:10;;;;;;;4.30;3.50;;;47.50;40.00;;;;;;5018607;28;20229;-72
2022/06/28 10:51:00;;;;;;;5.30;3.28;;;47.40;40.00;;;;;;5021009;28;20248;-74
2022/06/28 10:54:01;;;;;;;4.07;3.03;;;46.70;38.80;;;;;;5018679;28;20409;-73
2022/06/28 10:56:50;;;;;;;3.63;2.83;;;46.10;38.00;;;;;;5016456;28;20293;-74
2022/06/28 10:59:39;;;;;;;4.97;3.17;;;42.40;40.90;;;;;;5005697;28;20322;-73
2022/06/28 11:02:46;;;;;;;3.45;3.03;;;41.80;43.40;;;;;;5005999;28;20652;-73
2022/06/28 11:05:51;;;;;;;3.95;3.42;;;40.70;45.30;;;;;;5021934;28;20217;-72
2022/06/28 11:08:58;;;;;;;3.63;3.30;;;39.50;46.60;;;;;;5007177;28;20228;-72
2022/06/28 11:12:11;;;;;;;3.92;3.30;;;38.00;49.00;;;;;;5003580;28;20220;-74
2022/06/28 11:15:01;;;;;;;5.60;3.42;;;41.30;46.30;;;;;;5020611;28;20220;-73
2022/06/28 11:17:52;;;;;;;3.72;3.42;;;43.50;42.40;;;;;;5017659;28;20533;-73
2022/06/28 11:20:40;;;;;;;3.70;3.35;;;44.70;41.60;;;;;;5021941;28;20221;-74
2022/06/28 11:23:31;;;;;;;4.18;3.00;;;45.30;40.10;;;;;;5019862;28;20232;-71
2022/06/28 11:29:26;;;;;;;3.92;3.50;;;41.70;43.40;;;;;;5018121;28;20228;-74
2022/06/28 11:32:23;;;;;;;3.53;3.22;;;40.10;45.20;;;;;;5020782;28;20224;-75
2022/06/28 11:35:14;;;;;;;4.63;3.65;;;39.10;47.30;;;;;;5021184;28;20235;-75
2022/06/28 11:38:05;;;;;;;5.95;4.05;;;38.20;48.80;;;;;;5042019;28;20225;-73
2022/06/28 11:40:54;;;;;;;5.68;4.28;;;38.00;49.40;;;;;;5011694;28;20223;-74
2022/06/28 11:43:43;;;;;;;4.90;3.90;;;38.40;50.10;;;;;;5021593;28;20221;-73
2022/06/28 11:46:35;;;;;;;3.88;3.50;;;40.30;47.70;;;;;;5005914;28;20241;-74
2022/06/28 11:49:28;;;;;;;5.85;4.45;;;39.40;47.20;;;;;;5008519;28;20235;-74
2022/06/28 11:52:18;;;;;;;5.70;3.92;;;38.80;47.50;;;;;;5015055;28;20252;-74
2022/06/28 11:55:07;;;;;;;5.20;3.78;;;39.60;47.50;;;;;;5005413;28;20270;-74
2022/06/28 11:58:15;;;;;;;4.75;4.32;;;38.90;47.90;;;;;;5023203;28;20239;-74
2022/06/28 12:01:07;;;;;;;6.65;3.78;;;38.30;50.90;;;;;;5018991;28;20717;-74
2022/06/28 12:03:58;;;;;;;10.55;3.90;;;37.70;49.50;;;;;;5022376;28;20240;-74
2022/06/28 12:06:48;;;;;;;9.63;4.70;;;40.20;49.70;;;;;;5023972;28;20266;-74
2022/06/28 12:09:46;;;;;;;10.55;3.72;;;42.50;45.70;;;;;;5020430;28;20801;-75
2022/06/28 12:12:42;;;;;;;6.03;4.32;;;42.60;43.10;;;;;;5010899;28;20233;-74
2022/06/28 12:15:32;;;;;;;6.93;4.28;;;41.20;45.60;;;;;;5023313;28;20316;-75
2022/06/28 12:18:21;;;;;;;3.88;3.55;;;42.70;45.80;;;;;;5024220;28;20239;-74
2022/06/28 12:21:14;;;;;;;7.90;4.22;;;43.20;44.30;;;;;;5025729;28;20224;-75
2022/06/28 12:24:03;;;;;;;4.68;4.28;;;41.10;44.70;;;;;;5009889;28;20308;-74
2022/06/28 12:26:53;;;;;;;4.50;3.80;;;39.20;47.40;;;;;;5028451;28;20224;-72
2022/06/28 12:29:42;;;;;;;6.10;4.15;;;38.20;49.10;;;;;;5031718;28;20232;-73
2022/06/28 12:32:31;;;;;;;5.45;4.35;;;37.60;49.90;;;;;;5024538;28;20237;-72
2022/06/28 12:35:36;;;;;;;5.32;3.88;;;36.80;50.40;;;;;;5020002;28;20312;-73
2022/06/28 12:38:24;;;;;;;6.07;5.10;;;37.00;51.30;;;;;;5024073;28;20224;-73
2022/06/28 12:41:13;;;;;;;11.23;10.13;;;36.50;51.00;;;;;;5018341;28;20220;-73
2022/06/28 12:44:03;;;;;;;6.90;4.55;;;38.30;50.30;;;;;;5023391;28;20217;-75
2022/06/28 12:46:52;;;;;;;7.60;6.45;;;39.20;48.20;;;;;;5021225;28;20225;-73
2022/06/28 12:49:41;;;;;;;4.47;3.78;;;38.90;49.20;;;;;;5019480;28;20224;-73
2022/06/28 12:52:30;;;;;;;7.57;4.50;;;40.50;46.30;;;;;;5007420;28;20240;-72
2022/06/28 12:55:18;;;;;;;5.95;3.75;;;41.40;46.20;;;;;;5007699;28;20366;-73
2022/06/28 12:58:07;;;;;;;4.60;3.40;;;40.80;46.20;;;;;;5021097;28;20316;-73
2022/06/28 13:00:57;;;;;;;6.82;3.70;;;39.20;48.00;;;;;;5023359;28;20364;-73
2022/06/28 13:03:46;;;;;;;8.23;4.57;;;38.20;49.20;;;;;;5024591;28;20217;-73
2022/06/28 13:06:35;;;;;;;5.53;4.00;;;37.50;50.00;;;;;;5023257;28;20213;-72
2022/06/28 13:09:23;;;;;;;5.30;3.78;;;37.20;50.90;;;;;;5020127;28;20218;-75
2022/06/28 13:12:12;;;;;;;7.80;4.40;;;37.00;51.30;;;;;;5015051;28;20222;-73
2022/06/28 13:15:01;;;;;;;5.75;3.97;;;36.90;52.50;;;;;;5006365;28;20314;-73
2022/06/28 13:17:50;;;;;;;6.63;4.43;;;36.70;52.00;;;;;;5019215;28;20241;-74
2022/06/28 13:20:39;;;;;;;6.68;4.57;;;36.50;52.20;;;;;;5003609;28;20228;-74
2022/06/28 13:23:28;;;;;;;5.32;4.40;;;36.50;53.20;;;;;;5019506;28;20228;-74
2022/06/28 13:26:17;;;;;;;6.78;4.57;;;36.30;52.20;;;;;;5020851;28;20221;-73
2022/06/28 13:29:12;;;;;;;6.47;5.43;;;36.20;52.90;;;;;;5020589;28;20710;-73
2022/06/28 13:32:00;;;;;;;5.22;4.25;;;36.00;53.50;;;;;;5002792;28;20225;-73
2022/06/28 13:34:50;;;;;;;5.90;5.18;;;35.80;54.30;;;;;;5010037;28;20315;-74
2022/06/28 13:37:40;;;;;;;4.90;4.50;;;35.70;54.70;;;;;;5019850;28;20236;-72
2022/06/28 13:40:30;;;;;;;6.38;4.63;;;35.50;54.30;;;;;;5019497;28;20221;-69
2022/06/28 13:43:34;;;;;;;7.43;4.55;;;35.60;54.80;;;;;;5023496;28;20801;-70
2022/06/28 13:46:22;;;;;;;5.95;5.22;;;35.40;52.90;;;;;;5020419;28;20275;-72
2022/06/28 13:49:11;;;;;;;8.02;4.80;;;35.20;52.60;;;;;;5021480;28;20222;-72
2022/06/28 13:52:01;;;;;;;5.55;5.03;;;35.10;54.70;;;;;;5007767;28;20377;-72
2022/06/28 13:54:50;;;;;;;9.13;4.93;;;34.80;55.20;;;;;;5016360;28;20344;-74
2022/06/28 13:57:39;;;;;;;7.55;4.50;;;34.60;55.40;;;;;;5023521;28;20248;-74
2022/06/28 14:00:28;;;;;;;8.60;5.28;;;34.50;55.10;;;;;;5022022;28;20220;-76
2022/06/28 14:03:20;;;;;;;7.43;4.80;;;34.30;56.10;;;;;;5020216;28;20226;-72
2022/06/28 14:06:09;;;;;;;5.97;4.57;;;34.10;55.80;;;;;;5003091;28;20223;-72
2022/06/28 14:09:02;;;;;;;5.60;5.10;;;34.00;56.00;;;;;;5023485;28;20232;-72
2022/06/28 14:11:51;;;;;;;6.25;4.82;;;33.80;56.90;;;;;;5011924;28;20224;-72
2022/06/28 14:14:39;;;;;;;11.27;5.25;;;33.70;57.50;;;;;;5017694;28;20221;-72
2022/06/28 14:17:28;;;;;;;8.95;4.72;;;33.70;57.50;;;;;;5011821;28;20231;-72
2022/06/28 14:20:17;;;;;;;6.97;5.05;;;33.60;57.80;;;;;;5019508;28;20217;-71
2022/06/28 14:23:05;;;;;;;8.95;4.70;;;33.50;58.30;;;;;;5008062;28;20550;-71
2022/06/28 14:25:55;;;;;;;5.40;4.88;;;33.30;58.60;;;;;;5014024;28;20216;-70
2022/06/28 14:28:44;;;;;;;5.22;4.72;;;33.10;59.40;;;;;;5006870;28;20233;-71
2022/06/28 14:31:33;;;;;;;5.75;5.15;;;33.00;59.70;;;;;;5019852;28;20221;-71
2022/06/28 14:34:37;;;;;;;5.97;5.07;;;33.00;59.50;;;;;;5008077;28;20788;-67
2022/06/28 14:37:26;;;;;;;8.27;5.38;;;32.90;60.20;;;;;;5005484;28;20228;-67
2022/06/28 14:40:15;;;;;;;6.85;5.68;;;32.90;59.50;;;;;;5007447;28;20236;-67
2022/06/28 14:43:05;;;;;;;9.13;6.13;;;32.70;61.10;;;;;;5004444;28;20225;-67
2022/06/28 14:45:54;;;;;;;8.45;5.28;;;32.70;62.30;;;;;;5002079;28;20235;-68
2022/06/28 14:48:42;;;;;;;12.23;6.00;;;32.50;61.60;;;;;;5025315;28;20782;-69
2022/06/28 14:51:31;;;;;;;11.10;6.10;;;32.20;64.20;;;;;;5021354;28;20243;-72
2022/06/28 14:54:21;;;;;;;25.33;6.95;;;31.90;71.00;;;;;;5020824;28;20264;-72
2022/06/28 14:57:09;;;;;;;7.95;6.07;;;31.70;85.10;;;;;;5003765;28;20304;-71
2022/06/28 14:59:59;;;;;;;9.68;6.47;;;31.00;94.30;;;;;;5022132;28;20674;-75
2022/06/28 15:02:48;;;;;;;19.08;7.00;;;30.70;97.40;;;;;;5005752;28;20229;-78
2022/06/28 15:05:38;;;;;;;14.77;6.72;;;29.90;99.90;;;;;;5017825;28;20217;-74
2022/06/28 15:08:27;;;;;;;13.73;6.72;;;29.50;99.90;;;;;;5021588;28;20229;-74
2022/06/28 15:11:16;;;;;;;15.35;7.00;;;29.20;99.90;;;;;;5025300;28;20229;-75